createdAt,value
2018-01-13T00:02:22.713Z,82.40
2018-01-13T00:04:48.629Z,82.20
2018-01-13T00:07:15.297Z,82.40
2018-01-13T00:09:41.228Z,82.30
2018-01-13T00:12:07.152Z,82.00
2018-01-13T00:14:33.890Z,82.20
2018-01-13T00:16:59.954Z,82.00
2018-01-13T00:19:25.866Z,82.30
2018-01-13T00:21:51.787Z,81.70
2018-01-13T00:24:17.704Z,82.00
2018-01-13T00:26:43.631Z,81.60
2018-01-13T00:29:09.545Z,81.70
2018-01-13T00:31:35.456Z,81.40
2018-01-13T00:34:01.421Z,81.70
2018-01-13T00:36:27.408Z,81.70
2018-01-13T00:38:54.226Z,81.30
2018-01-13T00:41:20.144Z,81.30
2018-01-13T00:43:46.063Z,81.70
2018-01-13T00:46:11.960Z,81.70
2018-01-13T00:48:38.624Z,81.60
2018-01-13T00:51:04.570Z,81.60
2018-01-13T00:53:30.555Z,81.50
2018-01-13T00:55:56.538Z,81.50
2018-01-13T00:58:22.493Z,81.40
2018-01-13T01:00:48.404Z,81.30
2018-01-13T01:03:14.344Z,81.60
2018-01-13T01:05:40.264Z,81.40
2018-01-13T01:08:06.180Z,81.30
2018-01-13T01:10:32.861Z,81.10
2018-01-13T01:12:58.928Z,81.00
2018-01-13T01:15:24.883Z,80.90
2018-01-13T01:17:50.802Z,81.00
2018-01-13T01:20:16.722Z,81.10
2018-01-13T01:22:42.637Z,81.60
2018-01-13T01:25:08.561Z,81.10
2018-01-13T01:27:34.484Z,81.10
2018-01-13T01:30:00.392Z,81.50
2018-01-13T01:32:34.133Z,80.90
2018-01-13T01:35:00.789Z,80.80
2018-01-13T01:37:26.724Z,80.80
2018-01-13T01:39:52.704Z,81.20
2018-01-13T01:42:18.620Z,80.90
2018-01-13T01:44:44.534Z,80.70
2018-01-13T01:47:10.472Z,80.80
2018-01-13T01:49:36.379Z,80.70
2018-01-13T01:52:03.038Z,80.60
2018-01-13T01:54:29.787Z,80.60
2018-01-13T01:56:55.763Z,80.50
2018-01-13T01:59:21.693Z,80.50
2018-01-13T02:01:47.632Z,80.40
2018-01-13T02:04:13.554Z,80.40
2018-01-13T02:06:39.469Z,80.10
2018-01-13T02:09:05.385Z,80.70
2018-01-13T02:11:31.326Z,80.00
2018-01-13T02:13:58.025Z,80.50
2018-01-13T02:16:24.016Z,80.50
2018-01-13T02:18:50.705Z,80.00
2018-01-13T02:21:16.612Z,80.00
2018-01-13T02:23:42.532Z,79.60
2018-01-13T02:26:09.205Z,79.80
2018-01-13T02:28:35.126Z,79.80
2018-01-13T02:31:01.772Z,79.30
2018-01-13T02:33:28.468Z,79.50
2018-01-13T02:35:54.413Z,79.50
2018-01-13T02:38:20.358Z,79.80
2018-01-13T02:40:46.277Z,78.60
2018-01-13T02:43:12.192Z,78.90
2018-01-13T02:45:38.115Z,79.10
2018-01-13T02:48:04.035Z,78.90
2018-01-13T02:50:29.993Z,78.50
2018-01-13T02:52:55.929Z,78.70
2018-01-13T02:55:21.926Z,78.60
2018-01-13T02:57:48.588Z,77.90
2018-01-13T03:00:14.500Z,77.90
2018-01-13T03:02:40.416Z,78.10
2018-01-13T03:05:06.339Z,77.70
2018-01-13T03:07:32.278Z,77.70
2018-01-13T03:09:58.190Z,77.70
2018-01-13T03:12:24.156Z,77.90
2018-01-13T03:14:50.084Z,77.80
2018-01-13T03:17:16.004Z,78.20
2018-01-13T03:19:41.936Z,78.20
2018-01-13T03:22:07.832Z,78.30
2018-01-13T03:24:33.757Z,78.10
2018-01-13T03:27:00.436Z,77.70
2018-01-13T03:29:26.417Z,77.60
2018-01-13T03:31:53.153Z,78.60
2018-01-13T03:34:19.072Z,78.50
2018-01-13T03:36:44.980Z,78.30
2018-01-13T03:39:10.896Z,78.30
2018-01-13T03:41:37.546Z,78.70
2018-01-13T03:44:04.200Z,78.10
2018-01-13T03:46:30.898Z,78.20
2018-01-13T03:48:56.872Z,78.10
2018-01-13T03:51:22.820Z,78.40
2018-01-13T03:53:49.488Z,77.90
2018-01-13T03:56:15.392Z,77.80
2018-01-13T03:58:42.052Z,78.30
2018-01-13T04:01:08.708Z,78.50
2018-01-13T04:03:35.368Z,78.20
2018-01-13T04:06:02.021Z,78.20
2018-01-13T04:08:27.966Z,78.10
2018-01-13T04:10:54.024Z,78.20
2018-01-13T04:13:19.944Z,78.60
2018-01-13T04:15:45.864Z,78.60
2018-01-13T04:18:11.785Z,78.60
2018-01-13T04:20:38.440Z,78.60
2018-01-13T04:23:05.095Z,78.60
2018-01-13T04:25:31.042Z,78.60
2018-01-13T04:27:57.144Z,78.60
2018-01-13T04:30:23.092Z,78.60
2018-01-13T04:32:49.744Z,78.50
2018-01-13T04:35:16.395Z,78.20
2018-01-13T04:37:43.049Z,77.90
2018-01-13T04:40:09.705Z,77.50
2018-01-13T04:42:36.360Z,77.80
2018-01-13T04:45:02.318Z,77.70
2018-01-13T04:47:28.266Z,77.90
2018-01-13T04:49:54.292Z,78.20
2018-01-13T04:52:20.212Z,78.10
2018-01-13T04:54:46.130Z,78.10
2018-01-13T04:57:12.040Z,78.40
2018-01-13T04:59:38.716Z,79.10
2018-01-13T05:02:04.626Z,78.40
2018-01-13T05:04:31.322Z,77.20
2018-01-13T05:06:57.273Z,77.70
2018-01-13T05:09:23.230Z,77.60
2018-01-13T05:11:49.134Z,77.30
2018-01-13T05:14:15.056Z,77.30
2018-01-13T05:16:40.971Z,76.70
2018-01-13T05:19:06.890Z,77.10
2018-01-13T05:21:33.551Z,77.20
2018-01-13T05:24:00.224Z,77.20
2018-01-13T05:26:26.233Z,77.00
2018-01-13T05:28:52.908Z,77.30
2018-01-13T05:31:18.822Z,77.10
2018-01-13T05:33:45.505Z,77.30
2018-01-13T05:36:11.397Z,77.30
2018-01-13T05:38:38.059Z,76.30
2018-01-13T05:41:04.708Z,76.60
2018-01-13T05:43:31.384Z,76.00
2018-01-13T05:45:57.328Z,76.00
2018-01-13T05:48:23.342Z,76.10
2018-01-13T05:50:49.244Z,76.10
2018-01-13T05:53:16.692Z,75.90
2018-01-13T05:55:42.608Z,75.90
2018-01-13T05:58:08.525Z,76.10
2018-01-13T06:00:34.457Z,76.40
2018-01-13T06:03:00.380Z,76.00
2018-01-13T06:05:26.475Z,76.10
2018-01-13T06:07:52.392Z,76.20
2018-01-13T06:10:18.300Z,76.30
2018-01-13T06:12:44.204Z,75.90
2018-01-13T06:15:10.873Z,76.40
2018-01-13T06:17:36.820Z,76.40
2018-01-13T06:20:02.746Z,75.80
2018-01-13T06:22:28.692Z,75.50
2018-01-13T06:24:54.629Z,76.10
2018-01-13T06:27:20.544Z,75.50
2018-01-13T06:29:46.464Z,75.80
2018-01-13T06:32:13.136Z,75.60
2018-01-13T06:34:39.049Z,75.60
2018-01-13T06:37:05.698Z,75.80
2018-01-13T06:39:32.425Z,75.80
2018-01-13T06:41:58.300Z,75.80
2018-01-13T06:44:24.236Z,75.80
2018-01-13T06:46:50.155Z,75.50
2018-01-13T06:49:16.812Z,75.60
2018-01-13T06:51:43.497Z,75.30
2018-01-13T06:54:09.433Z,75.20
2018-01-13T06:56:35.345Z,75.00
2018-01-13T06:59:01.273Z,74.60
2018-01-13T07:01:27.187Z,75.00
2018-01-13T07:03:53.894Z,74.60
2018-01-13T07:06:19.796Z,74.60
2018-01-13T07:08:45.735Z,74.60
2018-01-13T07:11:11.644Z,75.10
2018-01-13T07:13:38.300Z,74.20
2018-01-13T07:16:04.956Z,74.60
2018-01-13T07:18:30.899Z,74.60
2018-01-13T07:20:56.850Z,74.40
2018-01-13T07:23:22.798Z,73.80
2018-01-13T07:25:48.744Z,74.40
2018-01-13T07:28:14.692Z,75.30
2018-01-13T07:30:40.602Z,74.30
2018-01-13T07:33:06.518Z,74.20
2018-01-13T07:35:32.460Z,73.90
2018-01-13T07:37:58.393Z,73.70
2018-01-13T07:40:24.328Z,74.00
2018-01-13T07:42:50.240Z,74.30
2018-01-13T07:45:16.192Z,74.20
2018-01-13T07:47:42.121Z,73.60
2018-01-13T07:50:08.041Z,73.50
2018-01-13T07:52:33.956Z,73.70
2018-01-13T07:55:00.640Z,73.40
2018-01-13T07:57:26.589Z,74.10
2018-01-13T07:59:52.582Z,73.00
2018-01-13T08:02:19.238Z,73.30
2018-01-13T08:04:45.153Z,73.30
2018-01-13T08:07:11.837Z,73.90
2018-01-13T08:09:37.768Z,73.20
2018-01-13T08:12:03.692Z,73.50
2018-01-13T08:14:29.621Z,73.30
2018-01-13T08:16:56.306Z,73.00
2018-01-13T08:19:22.236Z,73.00
2018-01-13T08:21:48.151Z,73.00
2018-01-13T08:24:14.061Z,72.90
2018-01-13T08:26:39.984Z,73.20
2018-01-13T08:29:05.888Z,73.80
2018-01-13T08:31:31.808Z,73.00
2018-01-13T08:33:57.730Z,73.20
2018-01-13T08:36:23.687Z,73.20
2018-01-13T08:38:49.596Z,73.20
2018-01-13T08:41:15.512Z,73.20
2018-01-13T08:43:42.160Z,73.30
2018-01-13T08:46:08.876Z,73.30
2018-01-13T08:48:34.792Z,73.20
2018-01-13T08:51:00.706Z,73.10
2018-01-13T08:53:26.633Z,73.20
2018-01-13T08:55:52.563Z,73.40
2018-01-13T08:58:18.484Z,73.50
2018-01-13T09:00:45.156Z,72.60
2018-01-13T09:03:11.142Z,72.50
2018-01-13T09:05:37.079Z,72.60
2018-01-13T09:08:03.044Z,72.70
2018-01-13T09:10:29.730Z,73.20
2018-01-13T09:12:55.741Z,73.20
2018-01-13T09:15:21.660Z,72.30
2018-01-13T09:17:48.329Z,72.50
2018-01-13T09:20:14.251Z,72.40
2018-01-13T09:22:40.918Z,72.90
2018-01-13T09:25:06.838Z,72.90
2018-01-13T09:27:33.485Z,71.60
2018-01-13T09:30:00.205Z,71.00
2018-01-13T09:32:26.147Z,70.90
2018-01-13T09:34:52.076Z,71.40
2018-01-13T09:37:17.984Z,71.50
2018-01-13T09:39:43.900Z,71.50
2018-01-13T09:42:09.819Z,72.10
2018-01-13T09:44:35.742Z,71.80
2018-01-13T09:47:02.407Z,71.10
2018-01-13T09:49:28.350Z,71.10
2018-01-13T09:51:54.285Z,71.10
2018-01-13T09:54:20.201Z,71.10
2018-01-13T09:56:46.129Z,70.40
2018-01-13T09:59:12.046Z,70.60
2018-01-13T10:01:37.960Z,70.60
2018-01-13T10:04:03.860Z,70.90
2018-01-13T10:06:29.816Z,70.50
2018-01-13T10:08:55.784Z,70.80
2018-01-13T10:11:22.470Z,70.60
2018-01-13T10:13:48.378Z,70.50
2018-01-13T10:16:15.073Z,69.70
2018-01-13T10:18:41.011Z,69.60
2018-01-13T10:21:06.928Z,70.30
2018-01-13T10:23:32.840Z,70.60
2018-01-13T10:25:59.629Z,70.20
2018-01-13T10:28:25.612Z,70.20
2018-01-13T10:30:51.571Z,69.70
2018-01-13T10:33:18.200Z,68.30
2018-01-13T10:35:44.932Z,68.30
2018-01-13T10:38:11.111Z,68.20
2018-01-13T10:40:37.028Z,67.20
2018-01-13T10:43:02.948Z,67.90
2018-01-13T10:45:28.874Z,67.50
2018-01-13T10:47:54.879Z,67.20
2018-01-13T10:50:20.805Z,66.40
2018-01-13T10:52:46.761Z,67.30
2018-01-13T10:55:12.820Z,66.90
2018-01-13T10:57:38.753Z,66.90
2018-01-13T11:00:04.676Z,67.30
2018-01-13T11:02:30.654Z,67.40
2018-01-13T11:04:56.992Z,67.60
2018-01-13T11:07:23.758Z,66.90
2018-01-13T11:09:49.944Z,66.90
2018-01-13T11:12:15.865Z,66.80
2018-01-13T11:14:41.819Z,66.70
2018-01-13T11:17:07.779Z,66.60
2018-01-13T11:19:34.444Z,66.90
2018-01-13T11:22:01.186Z,67.00
2018-01-13T11:24:27.851Z,66.50
2018-01-13T11:26:54.538Z,66.20
2018-01-13T11:29:20.454Z,66.80
2018-01-13T11:31:46.379Z,65.30
2018-01-13T11:34:12.281Z,65.10
2018-01-13T11:36:38.945Z,64.50
2018-01-13T11:39:05.597Z,64.90
2018-01-13T11:41:32.261Z,62.60
2018-01-13T11:43:59.087Z,63.60
2018-01-13T11:46:25.073Z,63.50
2018-01-13T11:48:50.993Z,64.30
2018-01-13T11:51:16.904Z,63.20
2018-01-13T11:53:43.552Z,62.70
2018-01-13T11:56:10.212Z,62.60
2018-01-13T11:58:36.864Z,62.70
2018-01-13T12:01:03.544Z,63.40
2018-01-13T12:03:29.539Z,63.30
2018-01-13T12:05:56.233Z,62.20
2018-01-13T12:08:22.148Z,62.20
2018-01-13T12:10:48.108Z,62.20
2018-01-13T12:13:14.758Z,63.00
2018-01-13T12:15:40.667Z,63.10
2018-01-13T12:18:06.590Z,63.10
2018-01-13T12:20:33.245Z,62.20
2018-01-13T12:22:59.912Z,62.50
2018-01-13T12:25:25.863Z,62.50
2018-01-13T12:27:51.785Z,61.60
2018-01-13T12:30:17.722Z,62.30
2018-01-13T12:32:43.654Z,62.30
2018-01-13T12:35:09.565Z,62.80
2018-01-13T12:37:36.222Z,62.60
2018-01-13T12:40:02.149Z,62.60
2018-01-13T12:42:28.837Z,62.40
2018-01-13T12:44:54.767Z,62.40
2018-01-13T12:47:20.679Z,62.80
2018-01-13T12:49:46.605Z,62.90
2018-01-13T12:52:13.264Z,62.60
2018-01-13T12:54:39.180Z,62.50
2018-01-13T12:57:05.844Z,62.20
2018-01-13T12:59:32.555Z,62.40
2018-01-13T13:01:58.492Z,62.40
2018-01-13T13:04:24.428Z,62.10
2018-01-13T13:06:50.348Z,62.10
2018-01-13T13:09:16.261Z,62.30
2018-01-13T13:11:42.212Z,62.00
2018-01-13T13:14:08.120Z,61.80
2018-01-13T13:16:34.068Z,61.40
2018-01-13T13:18:59.968Z,61.80
2018-01-13T13:21:25.925Z,61.80
2018-01-13T13:23:51.844Z,62.10
2018-01-13T13:26:17.760Z,62.40
2018-01-13T13:28:44.411Z,61.90
2018-01-13T13:31:11.072Z,62.10
2018-01-13T13:33:37.720Z,61.10
2018-01-13T13:36:04.380Z,61.20
2018-01-13T13:38:30.286Z,61.10
2018-01-13T13:40:56.244Z,61.30
2018-01-13T13:43:22.173Z,61.40
2018-01-13T13:45:48.828Z,61.90
2018-01-13T13:48:14.740Z,61.90
2018-01-13T13:50:40.660Z,62.40
2018-01-13T13:53:06.582Z,62.80
2018-01-13T13:55:32.492Z,63.10
2018-01-13T13:57:58.968Z,62.80
2018-01-13T14:00:26.061Z,62.80
2018-01-13T14:02:52.133Z,63.10
2018-01-13T14:05:18.079Z,62.70
2018-01-13T14:07:44.004Z,63.10
2018-01-13T14:10:09.913Z,63.30
2018-01-13T14:12:35.845Z,63.20
2018-01-13T14:15:01.758Z,63.70
2018-01-13T14:17:28.446Z,65.20
2018-01-13T14:19:54.384Z,64.20
2018-01-13T14:22:20.309Z,64.10
2018-01-13T14:24:46.944Z,64.00
2018-01-13T14:27:13.625Z,64.00
2018-01-13T14:29:39.538Z,64.00
2018-01-13T14:32:05.446Z,63.80
2018-01-13T14:34:32.088Z,64.00
2018-01-13T14:36:59.501Z,64.00
2018-01-13T14:39:25.474Z,64.00
2018-01-13T14:41:51.404Z,63.70
2018-01-13T14:44:17.320Z,63.80
2018-01-13T14:46:43.231Z,63.40
2018-01-13T14:49:09.143Z,63.20
2018-01-13T14:51:35.797Z,64.60
2018-01-13T14:54:02.449Z,63.70
2018-01-13T14:56:29.130Z,63.90
2018-01-13T14:58:55.068Z,63.80
2018-01-13T15:01:20.972Z,64.00
2018-01-13T15:03:47.638Z,64.30
2018-01-13T15:06:13.547Z,64.20
2018-01-13T15:08:40.200Z,64.40
2018-01-13T15:11:06.096Z,64.40
2018-01-13T15:13:32.044Z,64.60
2018-01-13T15:15:57.986Z,64.70
2018-01-13T15:18:23.966Z,64.70
2018-01-13T15:20:49.883Z,64.30
2018-01-13T15:23:16.539Z,64.10
2018-01-13T15:25:43.184Z,64.10
2018-01-13T15:28:09.893Z,63.60
2018-01-13T15:30:35.806Z,63.50
2018-01-13T15:33:01.764Z,63.20
2018-01-13T15:35:27.689Z,63.60
2018-01-13T15:37:53.630Z,63.10
2018-01-13T15:40:19.553Z,62.80
2018-01-13T15:42:45.476Z,62.40
2018-01-13T15:45:11.415Z,62.50
2018-01-13T15:47:37.337Z,61.70
2018-01-13T15:50:03.241Z,61.40
2018-01-13T15:52:29.936Z,61.30
2018-01-13T15:54:56.038Z,61.30
2018-01-13T15:57:22.802Z,61.60
2018-01-13T15:59:48.760Z,61.60
2018-01-13T16:02:14.665Z,61.70
2018-01-13T16:04:41.308Z,62.10
2018-01-13T16:07:07.976Z,62.20
2018-01-13T16:09:33.884Z,62.10
2018-01-13T16:11:59.796Z,62.70
2018-01-13T16:14:25.726Z,62.90
2018-01-13T16:16:51.638Z,63.00
2018-01-13T16:19:17.548Z,63.00
2018-01-13T16:21:43.456Z,63.40
2018-01-13T16:24:10.124Z,63.50
2018-01-13T16:26:36.036Z,63.40
2018-01-13T16:29:01.970Z,63.60
2018-01-13T16:31:27.913Z,64.40
2018-01-13T16:33:54.606Z,63.60
2018-01-13T16:36:20.525Z,63.60
2018-01-13T16:38:53.478Z,63.90
2018-01-13T16:41:19.392Z,64.00
2018-01-13T16:43:45.313Z,63.90
2018-01-13T16:46:11.224Z,63.90
2018-01-13T16:48:37.148Z,63.90
2018-01-13T16:51:03.129Z,63.80
2018-01-13T16:53:29.077Z,64.00
2018-01-13T16:55:55.020Z,63.90
2018-01-13T16:58:22.423Z,64.70
2018-01-13T17:00:48.352Z,64.60
2018-01-13T17:03:15.008Z,64.40
2018-01-13T17:05:40.937Z,64.30
2018-01-13T17:08:07.596Z,64.60
2018-01-13T17:10:33.528Z,64.60
2018-01-13T17:12:59.492Z,64.80
2018-01-13T17:15:25.428Z,64.50
2018-01-13T17:17:51.361Z,65.00
2018-01-13T17:20:17.260Z,65.00
2018-01-13T17:22:43.171Z,65.30
2018-01-13T17:25:09.081Z,65.30
2018-01-13T17:27:35.012Z,65.60
2018-01-13T17:30:00.912Z,65.50
2018-01-13T17:32:26.859Z,65.50
2018-01-13T17:34:52.776Z,65.60
2018-01-13T17:37:18.737Z,65.80
2018-01-13T17:39:44.673Z,65.70
2018-01-13T17:42:10.579Z,65.70
2018-01-13T17:44:36.493Z,65.80
2018-01-13T17:47:03.144Z,65.80
2018-01-13T17:49:29.797Z,65.80
2018-01-13T17:51:56.588Z,66.10
2018-01-13T17:54:22.622Z,66.10
2018-01-13T17:56:48.631Z,66.40
2018-01-13T17:59:14.548Z,65.60
2018-01-13T18:01:41.201Z,66.30
2018-01-13T18:04:07.859Z,66.30
2018-01-13T18:06:34.571Z,66.30
2018-01-13T18:09:00.443Z,66.30
2018-01-13T18:11:27.110Z,66.40
2018-01-13T18:13:53.065Z,66.40
2018-01-13T18:16:18.985Z,66.40
2018-01-13T18:18:44.908Z,66.40
2018-01-13T18:21:11.565Z,66.40
2018-01-13T18:23:37.477Z,66.40
2018-01-13T18:26:04.185Z,66.40
2018-01-13T18:28:30.101Z,66.30
2018-01-13T18:30:56.029Z,66.40
2018-01-13T18:33:21.944Z,66.60
2018-01-13T18:35:47.867Z,66.80
2018-01-13T18:38:14.531Z,66.40
2018-01-13T18:40:41.178Z,66.80
2018-01-13T18:43:07.828Z,66.70
2018-01-13T18:45:34.540Z,66.70
2018-01-13T18:48:00.406Z,66.60
2018-01-13T18:50:27.073Z,66.90
2018-01-13T18:52:53.025Z,66.80
2018-01-13T18:55:18.946Z,67.00
2018-01-13T18:57:44.926Z,66.90
2018-01-13T19:00:11.600Z,66.90
2018-01-13T19:02:37.505Z,66.90
2018-01-13T19:05:03.433Z,67.20
2018-01-13T19:07:29.481Z,67.30
2018-01-13T19:09:55.433Z,67.30
2018-01-13T19:12:21.340Z,67.50
2018-01-13T19:14:47.264Z,67.40
2018-01-13T19:17:13.324Z,67.50
2018-01-13T19:19:39.236Z,67.70
2018-01-13T19:22:05.152Z,67.90
2018-01-13T19:24:31.095Z,68.00
2018-01-13T19:26:57.086Z,67.80
2018-01-13T19:29:23.927Z,68.00
2018-01-13T19:31:49.835Z,67.80
2018-01-13T19:34:15.813Z,67.70
2018-01-13T19:36:42.459Z,67.40
2018-01-13T19:39:09.120Z,67.50
2018-01-13T19:41:35.772Z,67.80
2018-01-13T19:44:02.449Z,68.00
2018-01-13T19:46:28.382Z,67.80
2018-01-13T19:48:54.323Z,68.00
2018-01-13T19:51:20.244Z,68.00
2018-01-13T19:53:46.157Z,68.10
2018-01-13T19:56:12.804Z,67.90
2018-01-13T19:58:39.457Z,68.00
2018-01-13T20:01:06.109Z,68.00
2018-01-13T20:03:32.788Z,67.80
2018-01-13T20:05:59.429Z,68.00
2018-01-13T20:08:25.402Z,67.90
2018-01-13T20:10:51.316Z,68.00
2018-01-13T20:13:17.233Z,67.90
2018-01-13T20:15:43.131Z,68.00
2018-01-13T20:18:09.044Z,67.60
2018-01-13T20:20:34.964Z,66.90
2018-01-13T20:23:00.880Z,67.80
2018-01-13T20:25:26.820Z,67.00
2018-01-13T20:27:52.777Z,66.70
2018-01-13T20:30:18.701Z,66.60
2018-01-13T20:32:44.608Z,66.70
2018-01-13T20:35:10.528Z,66.70
2018-01-13T20:37:37.180Z,66.50
2018-01-13T20:40:03.852Z,66.90
2018-01-13T20:42:29.761Z,66.90
2018-01-13T20:44:56.441Z,67.00
2018-01-13T20:47:22.352Z,67.00
2018-01-13T20:49:48.276Z,66.90
2018-01-13T20:52:14.936Z,67.20
2018-01-13T20:54:41.590Z,67.20
2018-01-13T20:57:08.240Z,66.90
2018-01-13T20:59:34.908Z,67.40
2018-01-13T21:02:00.816Z,67.40
2018-01-13T21:04:27.503Z,67.20
2018-01-13T21:06:53.468Z,67.10
2018-01-13T21:09:19.389Z,67.60
2018-01-13T21:11:45.295Z,67.60
2018-01-13T21:14:11.201Z,67.50
2018-01-13T21:16:37.932Z,67.30
2018-01-13T21:19:03.864Z,67.30
2018-01-13T21:21:29.790Z,67.50
2018-01-13T21:23:55.733Z,67.50
2018-01-13T21:26:21.647Z,67.00
2018-01-13T21:28:47.564Z,67.30
2018-01-13T21:31:13.464Z,67.40
2018-01-13T21:33:40.125Z,67.60
2018-01-13T21:36:06.037Z,67.50
2018-01-13T21:38:32.686Z,68.10
2018-01-13T21:40:59.392Z,67.80
2018-01-13T21:43:25.347Z,67.40
2018-01-13T21:45:52.778Z,67.80
2018-01-13T21:48:18.692Z,67.70
2018-01-13T21:50:45.345Z,67.70
2018-01-13T21:53:11.988Z,67.90
2018-01-13T21:55:38.641Z,67.50
2018-01-13T21:58:05.293Z,67.60
2018-01-13T22:00:31.956Z,67.50
2018-01-13T22:02:57.898Z,67.50
2018-01-13T22:05:23.828Z,67.60
2018-01-13T22:07:49.737Z,67.70
2018-01-13T22:10:16.434Z,67.50
2018-01-13T22:12:42.348Z,67.60
2018-01-13T22:15:08.268Z,67.50
2018-01-13T22:17:34.915Z,67.00
2018-01-13T22:20:01.653Z,67.20
2018-01-13T22:22:27.602Z,67.20
2018-01-13T22:24:54.525Z,67.10
2018-01-13T22:27:20.449Z,67.00
2018-01-13T22:29:46.356Z,67.10
2018-01-13T22:32:12.297Z,67.20
2018-01-13T22:34:38.205Z,66.70
2018-01-13T22:37:04.860Z,67.30
2018-01-13T22:39:30.820Z,67.30
2018-01-13T22:41:56.818Z,67.40
2018-01-13T22:44:23.493Z,67.30
2018-01-13T22:46:49.396Z,67.30
2018-01-13T22:49:15.300Z,67.50
2018-01-13T22:51:41.200Z,67.40
2018-01-13T22:54:07.117Z,67.40
2018-01-13T22:56:33.772Z,67.60
2018-01-13T22:58:59.705Z,68.20
2018-01-13T23:01:32.622Z,67.50
2018-01-13T23:03:58.556Z,67.40
2018-01-13T23:06:24.645Z,67.30
2018-01-13T23:08:52.040Z,67.30
2018-01-13T23:11:17.957Z,67.30
2018-01-13T23:13:43.860Z,67.30
2018-01-13T23:16:09.780Z,67.90
2018-01-13T23:18:35.694Z,67.40
2018-01-13T23:21:01.636Z,67.70
2018-01-13T23:23:27.643Z,67.50
2018-01-13T23:25:56.336Z,67.60
2018-01-13T23:28:22.300Z,67.60
2018-01-13T23:30:48.233Z,67.40
2018-01-13T23:33:14.140Z,67.70
2018-01-13T23:35:40.796Z,67.60
2018-01-13T23:38:07.444Z,67.70
2018-01-13T23:40:33.364Z,67.70
2018-01-13T23:42:59.279Z,68.20
2018-01-13T23:45:25.220Z,67.70
2018-01-13T23:47:51.145Z,68.10
2018-01-13T23:50:17.060Z,68.20
2018-01-13T23:52:42.980Z,68.30
2018-01-13T23:55:08.883Z,68.30
2018-01-13T23:57:34.812Z,68.00
